Kinsale, Virginia
Current Conditions -  °F | °C
As of 4:53 PM on Wednesday 28 Jan 2015 (Local Time) from KNUI Reporting Station
Clear Clear  
Wind Chill: 28°   Ceiling: Unl
Heat Index: 36°   Visibility: 10mi
Dew Point:   Wind: 10mph
Humidity: 29%   Direction: 310°NW
Pressure: 30.22"   Gusts: 20mph
Location:  38.03°N, 76.58°W
Report Text: KNUI 282153Z AUTO 31009G17KT 10SM CLR 02/M14 A3022 RMK AO2 SLP234 T00221144
Loading
Personal Weather Stations






























Interactive Weather Map New forecast layout! Learn more

10-Day Weather Forecast

Advertisements
Track Severe Weather on mobile